Jordan, MT

9:17 PM MDT on September 02, 2015 (GMT -0600)
Jordan | | Change Station
CLOSE
Current Station
Airport
Location: Jordan,
Elevation: 2661 ft
Nearby Weather Stations

Elev 2661 ft 47.33 °N, 106.95 °W | Updated 29 minutes ago

Partly Cloudy
Partly Cloudy
71 °F
Feels Like 71 °F
N
0
Wind Variable Wind from North
Gusts 16 mph

Today
High -- | Low -- °F
--% Chance of Precip.
Yesterday
High -- | Low -- °F
Precip. -- in
6:27 AM 7:46 PM
Waning Gibbous, 74% visible
Pressure 29.59 in
Visibility -9999.0 miles
Clouds
Dew Point 39 °F
Humidity 31%
Rainfall 0.00 in
Snow Depth Not available.
UV Not available.
Pollen 10.10 out of 12
Air Quality Not available.
Flu Activity Not available.
METAR KJDN 030248Z AUTO 00000KT 22/04 A2963 RMK AO1 SLP018 T02170039 53003
Pressure 29.59 in
Visibility -9999.0 miles
Clouds
Dew Point 39 °F
Humidity 31%
Rainfall 0.00 in
Snow Depth Not available.
UV Not available.
Pollen 10.10 out of 12
Air Quality Not available.
Flu Activity Not available.
METAR KJDN 030248Z AUTO 00000KT 22/04 A2963 RMK AO1 SLP018 T02170039 53003

10-Day Weather Forecast

×

Almanac

Astronomy

Sep. 02, 2015 Rise Set
Actual Time
Civil Twilight
Nautical Twilight
Astronomical Twilight
Moon
Length of Visible Light
Length of Day
Tomorrow will be .
, % of the Moon is Illuminated

Today's Extremes

State Highs State Lows

Community

WunderPhotos

Upload Photos

1,851,892 photos uploaded!

WunderBlogs® & News

Nearby

Air Quality

  Air Quality AQ Index Pollutant
Not available.

Snow Depth

Station Depth Elevation

Earthquake Activity

City Distance Mag. Time & Date
Minimum magnitude displayed is 2.5.

Coastal Water Temperatures

Place Temperature

Stations

Nearby Weather Stations

Station Location Temp. Windchill Dew Point Humidity Wind Precip. Elev Updated Type